UAL154 PKMJ-PKWA
Flight info
| Callsign | UAL154 |
|---|---|
| Flight time | 0h 44m |
| Altitude | 30000 |
| Route | OREEO |
| Aircraft | B38M/M-SDE1FGHILORVWXY/HB1 |
Departure
| Time | 2026-04-22 19:09 |
|---|---|
| Airport | Marshall Islands International Airport (PKMJ) |
Arrival
| Time | 2026-04-22 19:53 |
|---|---|
| Airport | Bucholz Army Air Field (PKWA) |
| Time | Latitude | Longitude | Altitude | Speed | Heading |
|---|---|---|---|---|---|
| 2026-04-22 18:43 | 7.06849 | 171.28197 | 7 ft | 0 kts | 115° |
| 2026-04-22 19:03 | 7.06842 | 171.28203 | 7 ft | 3 kts | 144° |
| 2026-04-22 19:03 | 7.06807 | 171.28219 | 7 ft | 9 kts | 162° |
| 2026-04-22 19:03 | 7.06746 | 171.28194 | 8 ft | 12 kts | 238° |
| 2026-04-22 19:03 | 7.06717 | 171.28091 | 5 ft | 19 kts | 256° |
| 2026-04-22 19:04 | 7.06684 | 171.27946 | 4 ft | 23 kts | 255° |
| 2026-04-22 19:04 | 7.06644 | 171.27784 | 5 ft | 25 kts | 256° |
| 2026-04-22 19:04 | 7.06601 | 171.27608 | 2 ft | 27 kts | 256° |
| 2026-04-22 19:04 | 7.06556 | 171.27420 | 4 ft | 28 kts | 256° |
| 2026-04-22 19:05 | 7.06509 | 171.27223 | 4 ft | 30 kts | 256° |
| 2026-04-22 19:05 | 7.06458 | 171.27020 | 7 ft | 31 kts | 256° |
| 2026-04-22 19:05 | 7.06404 | 171.26801 | 1 ft | 34 kts | 257° |
| 2026-04-22 19:05 | 7.06350 | 171.26566 | 1 ft | 35 kts | 256° |
| 2026-04-22 19:06 | 7.06288 | 171.26326 | 0 ft | 32 kts | 256° |
| 2026-04-22 19:06 | 7.06279 | 171.26177 | 1 ft | 14 kts | 256° |
| 2026-04-22 19:06 | 7.06263 | 171.26159 | 1 ft | 1 kts | 179° |
| 2026-04-22 19:07 | 7.06256 | 171.26192 | 1 ft | 4 kts | 78° |
| 2026-04-22 19:07 | 7.06259 | 171.26203 | 1 ft | 0 kts | 75° |
| 2026-04-22 19:08 | 7.06264 | 171.26221 | 1 ft | 17 kts | 75° |
| 2026-04-22 19:08 | 7.06370 | 171.26653 | 1 ft | 107 kts | 76° |
| 2026-04-22 19:09 | 7.06605 | 171.27638 | 30 ft | 177 kts | 76° |
| 2026-04-22 19:09 | 7.06906 | 171.28990 | 481 ft | 213 kts | 73° |
| 2026-04-22 19:09 | 7.07269 | 171.29948 | 1049 ft | 225 kts | 60° |
| 2026-04-22 19:09 | 7.08830 | 171.31341 | 2483 ft | 242 kts | 20° |
| 2026-04-22 19:10 | 7.10556 | 171.31511 | 3362 ft | 260 kts | 354° |
| 2026-04-22 19:10 | 7.12281 | 171.30957 | 4529 ft | 261 kts | 332° |
| 2026-04-22 19:10 | 7.13695 | 171.29858 | 5827 ft | 258 kts | 319° |
| 2026-04-22 19:10 | 7.14798 | 171.28358 | 6541 ft | 280 kts | 296° |
| 2026-04-22 19:11 | 7.15481 | 171.26453 | 7232 ft | 295 kts | 289° |
| 2026-04-22 19:11 | 7.16120 | 171.24508 | 8328 ft | 293 kts | 289° |
| 2026-04-22 19:11 | 7.16768 | 171.22523 | 9150 ft | 303 kts | 289° |
| 2026-04-22 19:11 | 7.17431 | 171.20496 | 10067 ft | 307 kts | 289° |
| 2026-04-22 19:12 | 7.18113 | 171.18402 | 10637 ft | 324 kts | 289° |
| 2026-04-22 19:12 | 7.18852 | 171.16193 | 11097 ft | 341 kts | 291° |
| 2026-04-22 19:12 | 7.19683 | 171.13910 | 11692 ft | 352 kts | 291° |
| 2026-04-22 19:12 | 7.20536 | 171.11583 | 12498 ft | 354 kts | 291° |
| 2026-04-22 19:13 | 7.21391 | 171.09236 | 13264 ft | 360 kts | 291° |
| 2026-04-22 19:13 | 7.22256 | 171.06856 | 14001 ft | 364 kts | 291° |
| 2026-04-22 19:13 | 7.23130 | 171.04455 | 14683 ft | 367 kts | 291° |
| 2026-04-22 19:13 | 7.24018 | 171.02035 | 15326 ft | 371 kts | 291° |
| 2026-04-22 19:14 | 7.24921 | 170.99591 | 15990 ft | 374 kts | 291° |
| 2026-04-22 19:14 | 7.25832 | 170.97139 | 16558 ft | 376 kts | 291° |
| 2026-04-22 19:14 | 7.26760 | 170.94656 | 17145 ft | 380 kts | 291° |
| 2026-04-22 19:14 | 7.27698 | 170.92158 | 17767 ft | 383 kts | 291° |
| 2026-04-22 19:15 | 7.28325 | 170.90492 | 18150 ft | 386 kts | 291° |
| 2026-04-22 19:15 | 7.29608 | 170.87096 | 18840 ft | 390 kts | 291° |
| 2026-04-22 19:15 | 7.30580 | 170.84539 | 19362 ft | 392 kts | 291° |
| 2026-04-22 19:15 | 7.31561 | 170.81965 | 19848 ft | 395 kts | 291° |
| 2026-04-22 19:16 | 7.32556 | 170.79370 | 20319 ft | 399 kts | 291° |
| 2026-04-22 19:16 | 7.33561 | 170.76764 | 20858 ft | 400 kts | 291° |
| 2026-04-22 19:16 | 7.34575 | 170.74148 | 21312 ft | 403 kts | 291° |
| 2026-04-22 19:16 | 7.35603 | 170.71510 | 21815 ft | 405 kts | 291° |
| 2026-04-22 19:17 | 7.36287 | 170.69763 | 22186 ft | 405 kts | 291° |
| 2026-04-22 19:17 | 7.37689 | 170.66204 | 22738 ft | 412 kts | 291° |
| 2026-04-22 19:17 | 7.38395 | 170.64424 | 23023 ft | 414 kts | 291° |
| 2026-04-22 19:17 | 7.39463 | 170.61735 | 23534 ft | 415 kts | 291° |
| 2026-04-22 19:18 | 7.40550 | 170.59026 | 23845 ft | 419 kts | 291° |
| 2026-04-22 19:18 | 7.41638 | 170.56308 | 24253 ft | 420 kts | 291° |
| 2026-04-22 19:18 | 7.42732 | 170.53573 | 24658 ft | 421 kts | 291° |
| 2026-04-22 19:18 | 7.44193 | 170.49937 | 25133 ft | 424 kts | 291° |
| 2026-04-22 19:19 | 7.44937 | 170.48075 | 25411 ft | 425 kts | 291° |
| 2026-04-22 19:19 | 7.46039 | 170.45311 | 25799 ft | 426 kts | 291° |
| 2026-04-22 19:19 | 7.47159 | 170.42537 | 26124 ft | 429 kts | 291° |
| 2026-04-22 19:19 | 7.48280 | 170.39745 | 26485 ft | 431 kts | 291° |
| 2026-04-22 19:20 | 7.49421 | 170.36935 | 26818 ft | 434 kts | 291° |
| 2026-04-22 19:20 | 7.50567 | 170.34118 | 27189 ft | 436 kts | 291° |
| 2026-04-22 19:20 | 7.51701 | 170.31327 | 27581 ft | 437 kts | 291° |
| 2026-04-22 19:20 | 7.52861 | 170.28492 | 27915 ft | 439 kts | 291° |
| 2026-04-22 19:21 | 7.54023 | 170.25638 | 28259 ft | 441 kts | 291° |
| 2026-04-22 19:21 | 7.55186 | 170.22771 | 28588 ft | 443 kts | 291° |
| 2026-04-22 19:21 | 7.56365 | 170.19892 | 28900 ft | 445 kts | 291° |
| 2026-04-22 19:21 | 7.57545 | 170.17002 | 29230 ft | 447 kts | 291° |
| 2026-04-22 19:22 | 7.58742 | 170.14098 | 29539 ft | 449 kts | 291° |
| 2026-04-22 19:22 | 7.59933 | 170.11179 | 29841 ft | 452 kts | 291° |
| 2026-04-22 19:22 | 7.61131 | 170.08233 | 29918 ft | 458 kts | 291° |
| 2026-04-22 19:23 | 7.63541 | 170.02257 | 29910 ft | 461 kts | 291° |
| 2026-04-22 19:23 | 7.65967 | 169.96277 | 29910 ft | 461 kts | 291° |
| 2026-04-22 19:24 | 7.68401 | 169.90301 | 29910 ft | 461 kts | 291° |
| 2026-04-22 19:24 | 7.70820 | 169.84322 | 29911 ft | 461 kts | 291° |
| 2026-04-22 19:25 | 7.73230 | 169.78340 | 29912 ft | 461 kts | 291° |
| 2026-04-22 19:25 | 7.75635 | 169.72356 | 29911 ft | 460 kts | 291° |
| 2026-04-22 19:26 | 7.78028 | 169.66375 | 29912 ft | 460 kts | 291° |
| 2026-04-22 19:26 | 7.80389 | 169.60383 | 29911 ft | 460 kts | 290° |
| 2026-04-22 19:27 | 7.82697 | 169.54377 | 29908 ft | 459 kts | 290° |
| 2026-04-22 19:27 | 7.85015 | 169.48368 | 29913 ft | 460 kts | 290° |
| 2026-04-22 19:28 | 7.87331 | 169.42357 | 29915 ft | 460 kts | 291° |
| 2026-04-22 19:28 | 7.89646 | 169.36349 | 29911 ft | 459 kts | 290° |
| 2026-04-22 19:29 | 7.91956 | 169.30347 | 29913 ft | 459 kts | 291° |
| 2026-04-22 19:29 | 7.94247 | 169.24394 | 29914 ft | 459 kts | 291° |
| 2026-04-22 19:30 | 7.96169 | 169.19398 | 29883 ft | 446 kts | 290° |
| 2026-04-22 19:30 | 7.97629 | 169.15601 | 29516 ft | 433 kts | 290° |
| 2026-04-22 19:30 | 7.98717 | 169.12771 | 28914 ft | 433 kts | 290° |
| 2026-04-22 19:30 | 7.99805 | 169.09942 | 28304 ft | 432 kts | 290° |
| 2026-04-22 19:31 | 8.00888 | 169.07123 | 27793 ft | 429 kts | 290° |
| 2026-04-22 19:31 | 8.01964 | 169.04322 | 27287 ft | 427 kts | 291° |
| 2026-04-22 19:31 | 8.03034 | 169.01535 | 26779 ft | 425 kts | 291° |
| 2026-04-22 19:31 | 8.04097 | 168.98767 | 26287 ft | 423 kts | 291° |
| 2026-04-22 19:32 | 8.05157 | 168.96008 | 25793 ft | 421 kts | 291° |
| 2026-04-22 19:32 | 8.06211 | 168.93261 | 25312 ft | 419 kts | 290° |
| 2026-04-22 19:32 | 8.07262 | 168.90523 | 24826 ft | 418 kts | 291° |
| 2026-04-22 19:32 | 8.08310 | 168.87791 | 24352 ft | 416 kts | 291° |
| 2026-04-22 19:33 | 8.09353 | 168.85070 | 23882 ft | 415 kts | 291° |
| 2026-04-22 19:33 | 8.10395 | 168.82356 | 23405 ft | 414 kts | 291° |
| 2026-04-22 19:33 | 8.11425 | 168.79669 | 22860 ft | 410 kts | 291° |
| 2026-04-22 19:33 | 8.12445 | 168.77008 | 22404 ft | 403 kts | 291° |
| 2026-04-22 19:34 | 8.13447 | 168.74394 | 21971 ft | 396 kts | 291° |
| 2026-04-22 19:34 | 8.14433 | 168.71821 | 21539 ft | 391 kts | 291° |
| 2026-04-22 19:34 | 8.15409 | 168.69272 | 21132 ft | 388 kts | 291° |
| 2026-04-22 19:34 | 8.16380 | 168.66735 | 20715 ft | 386 kts | 291° |
| 2026-04-22 19:35 | 8.17347 | 168.64211 | 20307 ft | 385 kts | 291° |
| 2026-04-22 19:35 | 8.18309 | 168.61700 | 19905 ft | 383 kts | 291° |
| 2026-04-22 19:35 | 8.19267 | 168.59196 | 19501 ft | 381 kts | 291° |
| 2026-04-22 19:35 | 8.20216 | 168.56715 | 19107 ft | 380 kts | 291° |
| 2026-04-22 19:36 | 8.21167 | 168.54231 | 18711 ft | 379 kts | 291° |
| 2026-04-22 19:36 | 8.22102 | 168.51786 | 18318 ft | 378 kts | 291° |
| 2026-04-22 19:36 | 8.23046 | 168.49317 | 17874 ft | 376 kts | 291° |
| 2026-04-22 19:36 | 8.23986 | 168.46859 | 17453 ft | 374 kts | 291° |
| 2026-04-22 19:37 | 8.24921 | 168.44414 | 17061 ft | 372 kts | 291° |
| 2026-04-22 19:37 | 8.25849 | 168.41985 | 16665 ft | 370 kts | 291° |
| 2026-04-22 19:37 | 8.26772 | 168.39569 | 16274 ft | 367 kts | 291° |
| 2026-04-22 19:37 | 8.27689 | 168.37170 | 15889 ft | 365 kts | 291° |
| 2026-04-22 19:38 | 8.28600 | 168.34784 | 15495 ft | 363 kts | 292° |
| 2026-04-22 19:38 | 8.29507 | 168.32409 | 15120 ft | 361 kts | 292° |
| 2026-04-22 19:38 | 8.30408 | 168.30049 | 14737 ft | 359 kts | 291° |
| 2026-04-22 19:38 | 8.31305 | 168.27699 | 14358 ft | 358 kts | 291° |
| 2026-04-22 19:39 | 8.32199 | 168.25357 | 13977 ft | 357 kts | 292° |
| 2026-04-22 19:39 | 8.33089 | 168.23024 | 13587 ft | 355 kts | 292° |
| 2026-04-22 19:39 | 8.33976 | 168.20699 | 13168 ft | 354 kts | 292° |
| 2026-04-22 19:39 | 8.34856 | 168.18393 | 12775 ft | 351 kts | 292° |
| 2026-04-22 19:40 | 8.35731 | 168.16098 | 12402 ft | 349 kts | 292° |
| 2026-04-22 19:40 | 8.36600 | 168.13819 | 12030 ft | 347 kts | 292° |
| 2026-04-22 19:40 | 8.37463 | 168.11555 | 11661 ft | 344 kts | 292° |
| 2026-04-22 19:40 | 8.38321 | 168.09305 | 11292 ft | 342 kts | 292° |
| 2026-04-22 19:41 | 8.39173 | 168.07067 | 10922 ft | 341 kts | 292° |
| 2026-04-22 19:41 | 8.40021 | 168.04841 | 10588 ft | 338 kts | 292° |
| 2026-04-22 19:41 | 8.40855 | 168.02654 | 10410 ft | 327 kts | 292° |
| 2026-04-22 19:41 | 8.41642 | 168.00586 | 10260 ft | 313 kts | 292° |
| 2026-04-22 19:42 | 8.42404 | 167.98584 | 10149 ft | 299 kts | 292° |
| 2026-04-22 19:42 | 8.43139 | 167.96655 | 10006 ft | 291 kts | 292° |
| 2026-04-22 19:42 | 8.43859 | 167.94762 | 9755 ft | 288 kts | 292° |
| 2026-04-22 19:42 | 8.44578 | 167.92872 | 9415 ft | 288 kts | 292° |
| 2026-04-22 19:43 | 8.46006 | 167.89121 | 8783 ft | 285 kts | 292° |
| 2026-04-22 19:43 | 8.46716 | 167.87255 | 8467 ft | 284 kts | 292° |
| 2026-04-22 19:43 | 8.47423 | 167.85396 | 8172 ft | 283 kts | 292° |
| 2026-04-22 19:44 | 8.48125 | 167.83551 | 7882 ft | 280 kts | 292° |
| 2026-04-22 19:44 | 8.48822 | 167.81716 | 7580 ft | 279 kts | 292° |
| 2026-04-22 19:44 | 8.49518 | 167.79886 | 7284 ft | 279 kts | 292° |
| 2026-04-22 19:44 | 8.50212 | 167.78062 | 6996 ft | 277 kts | 292° |
| 2026-04-22 19:45 | 8.50902 | 167.76247 | 6713 ft | 277 kts | 292° |
| 2026-04-22 19:45 | 8.51592 | 167.74430 | 6415 ft | 277 kts | 292° |
| 2026-04-22 19:45 | 8.52285 | 167.72614 | 6116 ft | 276 kts | 292° |
| 2026-04-22 19:45 | 8.52986 | 167.70805 | 5762 ft | 277 kts | 292° |
| 2026-04-22 19:46 | 8.53688 | 167.68993 | 5469 ft | 276 kts | 292° |
| 2026-04-22 19:46 | 8.54386 | 167.67190 | 5146 ft | 276 kts | 292° |
| 2026-04-22 19:46 | 8.55084 | 167.65385 | 4858 ft | 275 kts | 292° |
| 2026-04-22 19:46 | 8.55778 | 167.63589 | 4573 ft | 274 kts | 292° |
| 2026-04-22 19:47 | 8.56469 | 167.61808 | 4320 ft | 270 kts | 292° |
| 2026-04-22 19:47 | 8.57148 | 167.60049 | 4036 ft | 267 kts | 292° |
| 2026-04-22 19:47 | 8.57862 | 167.58363 | 3847 ft | 261 kts | 303° |
| 2026-04-22 19:47 | 8.59106 | 167.57113 | 3678 ft | 249 kts | 332° |
| 2026-04-22 19:48 | 8.60662 | 167.56467 | 3581 ft | 236 kts | 343° |
| 2026-04-22 19:48 | 8.62185 | 167.55950 | 3468 ft | 227 kts | 343° |
| 2026-04-22 19:48 | 8.63623 | 167.55481 | 3480 ft | 206 kts | 347° |
| 2026-04-22 19:48 | 8.64983 | 167.55461 | 3358 ft | 190 kts | 17° |
| 2026-04-22 19:49 | 8.66095 | 167.56087 | 3160 ft | 181 kts | 45° |
| 2026-04-22 19:49 | 8.66765 | 167.57114 | 2976 ft | 175 kts | 68° |
| 2026-04-22 19:49 | 8.67205 | 167.58263 | 2849 ft | 175 kts | 69° |
| 2026-04-22 19:49 | 8.67627 | 167.59418 | 2651 ft | 171 kts | 70° |
| 2026-04-22 19:50 | 8.68013 | 167.60523 | 2499 ft | 165 kts | 71° |
| 2026-04-22 19:50 | 8.68376 | 167.61607 | 2279 ft | 161 kts | 71° |
| 2026-04-22 19:50 | 8.68758 | 167.62669 | 2031 ft | 161 kts | 70° |
| 2026-04-22 19:50 | 8.69117 | 167.63733 | 1811 ft | 159 kts | 72° |
| 2026-04-22 19:51 | 8.69444 | 167.64778 | 1452 ft | 156 kts | 73° |
| 2026-04-22 19:51 | 8.69747 | 167.65805 | 1163 ft | 151 kts | 73° |
| 2026-04-22 19:51 | 8.70047 | 167.66817 | 970 ft | 149 kts | 72° |
| 2026-04-22 19:51 | 8.70350 | 167.67806 | 767 ft | 145 kts | 71° |
| 2026-04-22 19:52 | 8.70652 | 167.68821 | 621 ft | 158 kts | 71° |
| 2026-04-22 19:52 | 8.70984 | 167.69864 | 462 ft | 152 kts | 70° |
| 2026-04-22 19:52 | 8.71299 | 167.70873 | 246 ft | 152 kts | 70° |
| 2026-04-22 19:52 | 8.71624 | 167.71905 | 71 ft | 156 kts | 72° |
| 2026-04-22 19:53 | 8.71938 | 167.72921 | -50 ft | 141 kts | 72° |
| 2026-04-22 19:53 | 8.72166 | 167.73660 | -43 ft | 69 kts | 72° |
| 2026-04-22 19:53 | 8.72257 | 167.73946 | -43 ft | 23 kts | 63° |
| 2026-04-22 19:53 | 8.72337 | 167.73972 | -48 ft | 13 kts | 345° |
| 2026-04-22 19:54 | 8.72430 | 167.73945 | -51 ft | 15 kts | 344° |
| 2026-04-22 19:54 | 8.72538 | 167.73918 | -48 ft | 17 kts | 360° |
| 2026-04-22 19:54 | 8.72654 | 167.73963 | -34 ft | 19 kts | 27° |
| 2026-04-22 19:54 | 8.72718 | 167.74029 | -42 ft | 11 kts | 87° |
| 2026-04-22 19:55 | 8.72704 | 167.74078 | -44 ft | 3 kts | 117° |
| 2026-04-22 19:55 | 8.72699 | 167.74089 | -34 ft | 0 kts | 118° |